• Join FlightAware (Why Join?)
  • Login
  • US Flag 
01:59PM EDT


 

Airport Tracker/Info


-or-


 

Live Flight TrackerFlight Track Log ✈ OPT429 ✈ 24-Jun-2014 ✈ KTVI - KRMG

Flight Track Log - Related Links

Times and Time Zones

All times are in EDT time to prevent confusion due to time zone crossing. See the OPT429 flight status page for this flight to view local times or setup timezone preferences in your user account.

Time Position Orientation Groundspeed Altitude Reporting Facility
EDT Latitude Longitude Course Direction KTS MPH feet Rate Location/Type
01:39PM 30.8847 -83.8997 296° West 140 161 1,200  Level Jacksonville Center
01:40PM 30.9031 -83.9433 271° West 184 212 4,600 2,820 Climbing Jacksonville Center
01:42PM 30.9975 -83.9031 20° North 245 282 8,400 2,760 Climbing Jacksonville Center
01:43PM 31.0686 -83.8869 11° North 245 282 11,400 2,880 Climbing Jacksonville Center
01:44PM 31.1417 -83.8683 12° North 250 288 14,200 2,400 Climbing Jacksonville Center
01:45PM 31.2214 -83.8497 11° North 270 311 16,200 1,860 Climbing Jacksonville Center
01:46PM 31.3111 -83.8336 North 300 345 18,000 1,860 Climbing Jacksonville Center
01:47PM 31.4053 -83.8150 10° North 322 371 20,000 1,920 Climbing Jacksonville Center
01:48PM 31.4972 -83.8014 North 332 382 21,900 600 Climbing Jacksonville Center
01:50PM 31.7256 -83.7947 North 371 427 22,000  Climbing Atlanta Center
01:51PM 31.8508 -83.7969 359° North 406 467 22,000  Level Atlanta Center
01:52PM 31.9717 -83.8014 358° North 426 490 22,000  Level Atlanta Center
01:53PM 32.0969 -83.8036 359° North 432 497 22,000  Level Atlanta Center
01:54PM 32.2161 -83.8156 355° North 437 503 22,000  Level Atlanta Center
01:55PM 32.3308 -83.8544 344° North 436 502 22,000  Level Atlanta Center
01:56PM 32.4125 -83.9478 316° Northwest 399 459 22,000  Level Atlanta Center
01:57PM 32.4708 -84.0633 301° West 400 460 22,000  Level Atlanta Center
01:58PM 32.5314 -84.1817 301° West 400 460 22,000  Level Atlanta Center
01:59PM 32.5897 -84.3003 300° West 412 474 22,000  Level Atlanta Center
02:00PM 32.6478 -84.4164 301° West 412 474 22,000  Level Atlanta Center
02:01PM 32.7078 -84.5350 301° West 417 480 22,000  Level Atlanta Center
02:02PM 32.7700 -84.6489 303° West 422 486 22,000  Level Atlanta Center
02:03PM 32.8256 -84.7681 299° West 422 486 22,000  Level Atlanta Center
02:04PM 32.8856 -84.8797 303° West 417 480 22,000  Level Atlanta Center
02:05PM 32.9472 -84.9992 302° West 417 480 22,000  Level Atlanta Center
02:06PM 33.0047 -85.1189 300° West 417 480 22,000  Level Atlanta Center
02:07PM 33.0914 -85.2167 317° Northwest 417 480 22,000  Level Atlanta Center
02:08PM 33.2036 -85.2678 339° North 417 480 22,000  Level Atlanta Center
02:09PM 33.3181 -85.3092 343° North 418 481 22,000 -180 Level Atlanta Center
02:10PM 33.4344 -85.3531 343° North 429 494 21,700 -1,560 Descending Atlanta Center
02:11PM 33.5467 -85.3997 341° North 429 494 18,900 -2,700 Descending Atlanta Center
02:12PM 33.6553 -85.4014 359° North 397 457 16,400 -2,700 Descending Atlanta Center
02:13PM 33.7558 -85.3631 18° North 376 433 13,600 -2,820 Descending Atlanta Center
02:14PM 33.8522 -85.3294 16° North 371 427 10,800 -2,400 Descending Atlanta Center
02:15PM 33.9339 -85.3033 15° North 349 402 8,900 -2,100 Descending Atlanta Center
02:16PM 34.0133 -85.2794 14° North 317 365 6,600 -2,220 Descending Atlanta Center
02:17PM 34.0908 -85.2503 17° North 298 343 4,500 -1,440 Descending Atlanta Center
02:18PM 34.1664 -85.2264 15° North 285 328 3,800 -360 Descending Atlanta Center
02:19PM 34.2356 -85.1997 18° North 274 315 3,800  Level Atlanta Center